Time;durP1;ratioP1;P1;durP2;ratioP2;P2;SDS_P1;SDS_P2;PMS_P1;PMS_P2;Temp;Humidity;BMP_temperature;BMP_pressure;BME280_temperature;BME280_humidity;BME280_pressure;Samples;Min_cycle;Max_cycle;Signal;HPM_P1;HPM_P2
2021/01/17 00:01:05;;;;;;;30.05;12.43;;;-8.00;99.90;;;;;;4188234;28;20504;-62
2021/01/17 00:03:06;;;;;;;31.58;11.95;;;-8.00;99.90;;;;;;4187614;28;20453;-62
2021/01/17 00:05:16;;;;;;;27.23;10.85;;;-8.10;99.90;;;;;;4190610;28;20114;-62
2021/01/17 00:07:18;;;;;;;28.90;11.88;;;-8.10;99.90;;;;;;4191213;28;20137;-62
2021/01/17 00:09:19;;;;;;;28.27;11.77;;;-8.10;99.90;;;;;;4189993;28;20033;-62
2021/01/17 00:11:20;;;;;;;29.75;12.00;;;-8.10;99.90;;;;;;4190977;28;20080;-63
2021/01/17 00:13:23;;;;;;;28.60;11.82;;;-8.20;99.90;;;;;;4190955;28;20988;-64
2021/01/17 00:15:24;;;;;;;26.52;12.20;;;-8.10;99.90;;;;;;4189439;28;20025;-62
2021/01/17 00:17:27;;;;;;;28.58;11.80;;;-8.20;99.90;;;;;;4190858;28;20500;-63
2021/01/17 00:19:29;;;;;;;38.83;14.20;;;-8.10;99.90;;;;;;4190880;28;20054;-62
2021/01/17 00:21:30;;;;;;;32.67;12.88;;;-8.10;99.90;;;;;;4191130;28;20036;-62
2021/01/17 00:23:32;;;;;;;33.03;13.10;;;-8.10;99.90;;;;;;4190768;28;20049;-62
2021/01/17 00:25:34;;;;;;;33.10;13.45;;;-8.10;99.90;;;;;;4191012;28;20045;-61
2021/01/17 00:27:35;;;;;;;32.10;13.32;;;-8.10;99.90;;;;;;4190929;28;20767;-62
2021/01/17 00:29:36;;;;;;;36.40;13.85;;;-8.00;99.90;;;;;;4190687;28;20032;-62
2021/01/17 00:31:37;;;;;;;30.17;12.02;;;-8.00;99.90;;;;;;4190754;28;20386;-61
2021/01/17 00:33:39;;;;;;;32.13;13.55;;;-8.00;99.90;;;;;;4190618;28;20085;-62
2021/01/17 00:35:40;;;;;;;40.72;14.13;;;-8.10;99.90;;;;;;4190695;28;20045;-62
2021/01/17 00:37:41;;;;;;;29.63;11.18;;;-8.00;99.90;;;;;;4190658;28;20470;-62
2021/01/17 00:39:43;;;;;;;34.28;13.45;;;-8.00;99.90;;;;;;4190781;28;20032;-62
2021/01/17 00:41:44;;;;;;;28.88;11.93;;;-8.00;99.90;;;;;;4189982;28;20025;-63
2021/01/17 00:43:45;;;;;;;32.60;12.75;;;-8.10;99.90;;;;;;4190569;28;20516;-62
2021/01/17 00:45:46;;;;;;;30.00;12.50;;;-8.10;99.90;;;;;;4190438;28;20017;-62
2021/01/17 00:47:49;;;;;;;39.67;14.60;;;-8.10;99.90;;;;;;4190759;28;20102;-63
2021/01/17 00:49:50;;;;;;;38.47;14.70;;;-8.10;99.90;;;;;;4188881;28;20913;-63
2021/01/17 00:51:52;;;;;;;37.55;13.27;;;-8.10;99.90;;;;;;4189212;28;20427;-62
2021/01/17 00:53:53;;;;;;;33.92;13.65;;;-8.10;99.90;;;;;;4188962;28;20044;-63
2021/01/17 00:55:54;;;;;;;35.53;12.98;;;-8.00;99.90;;;;;;4190699;28;20024;-62
2021/01/17 00:57:55;;;;;;;34.03;13.05;;;-8.10;99.90;;;;;;4190388;28;20873;-62
2021/01/17 00:59:58;;;;;;;29.25;11.93;;;-8.10;99.90;;;;;;4190058;28;20474;-62
2021/01/17 01:01:59;;;;;;;28.58;11.38;;;-8.10;99.90;;;;;;4190230;28;20036;-62
2021/01/17 01:04:00;;;;;;;30.45;12.45;;;-8.10;99.90;;;;;;4190038;28;20128;-63
2021/01/17 01:06:01;;;;;;;27.23;12.70;;;-8.10;99.90;;;;;;4190169;28;20098;-62
2021/01/17 01:08:07;;;;;;;33.03;12.95;;;-8.10;99.90;;;;;;4190316;28;20020;-62
2021/01/17 01:10:09;;;;;;;28.55;11.77;;;-8.10;99.90;;;;;;4189867;28;20079;-62
2021/01/17 01:12:12;;;;;;;28.38;12.00;;;-8.10;99.90;;;;;;4189931;28;20483;-62
2021/01/17 01:14:13;;;;;;;32.17;12.82;;;-8.10;99.90;;;;;;4190193;28;20082;-62
2021/01/17 01:16:15;;;;;;;26.27;11.48;;;-8.10;99.90;;;;;;4188391;28;20024;-62
2021/01/17 01:18:16;;;;;;;30.83;12.82;;;-8.10;99.90;;;;;;4189872;28;20098;-62
2021/01/17 01:20:18;;;;;;;26.58;11.55;;;-8.10;99.90;;;;;;4190019;28;20029;-61
2021/01/17 01:22:19;;;;;;;27.65;10.80;;;-8.10;99.90;;;;;;4189983;28;20487;-62
2021/01/17 01:24:20;;;;;;;32.70;12.82;;;-8.10;99.90;;;;;;4190256;28;20028;-63
2021/01/17 01:26:22;;;;;;;30.88;12.70;;;-8.10;99.90;;;;;;4189871;28;20025;-62
2021/01/17 01:28:23;;;;;;;26.17;10.65;;;-8.10;99.90;;;;;;4189614;28;20094;-60
2021/01/17 01:30:25;;;;;;;31.70;11.25;;;-8.20;99.90;;;;;;4189680;28;20032;-62
2021/01/17 01:32:26;;;;;;;31.42;11.55;;;-8.20;99.90;;;;;;4189834;28;20916;-62
2021/01/17 01:34:27;;;;;;;29.13;11.50;;;-8.20;99.90;;;;;;4189840;28;20032;-62
2021/01/17 01:36:34;;;;;;;30.98;11.73;;;-8.20;99.90;;;;;;4189228;28;20079;-63
2021/01/17 01:38:35;;;;;;;31.75;12.05;;;-8.20;99.90;;;;;;4189631;28;20041;-63
2021/01/17 01:40:36;;;;;;;29.02;12.55;;;-8.10;99.90;;;;;;4189512;28;20510;-63
2021/01/17 01:42:42;;;;;;;31.88;11.52;;;-8.10;99.90;;;;;;4189834;28;20024;-62
2021/01/17 01:44:43;;;;;;;28.95;11.70;;;-8.10;99.90;;;;;;4189837;28;20032;-62
2021/01/17 01:46:45;;;;;;;30.73;13.45;;;-8.10;99.90;;;;;;4189450;28;20550;-62
2021/01/17 01:48:47;;;;;;;36.42;15.20;;;-8.10;99.90;;;;;;4189424;28;20025;-63
2021/01/17 01:50:48;;;;;;;32.53;14.57;;;-8.10;99.90;;;;;;4189251;28;20028;-63
2021/01/17 01:52:50;;;;;;;43.40;14.90;;;-8.10;99.90;;;;;;4189966;28;20021;-63
2021/01/17 01:54:51;;;;;;;37.72;13.77;;;-8.00;99.90;;;;;;4189649;28;20032;-62
2021/01/17 01:56:53;;;;;;;39.05;14.77;;;-8.00;99.90;;;;;;4189681;28;20089;-63
2021/01/17 01:58:55;;;;;;;37.28;13.25;;;-8.00;99.90;;;;;;4188956;28;20028;-62
2021/01/17 02:00:56;;;;;;;35.08;13.45;;;-7.90;99.90;;;;;;4189657;28;20535;-63
2021/01/17 02:02:58;;;;;;;31.77;12.50;;;-7.90;99.90;;;;;;4189164;28;20036;-63
2021/01/17 02:04:59;;;;;;;27.65;12.05;;;-7.90;99.90;;;;;;4189388;28;20026;-63
2021/01/17 02:07:27;;;;;;;33.95;12.77;;;-7.80;99.90;;;;;;4189477;28;20362;-63
2021/01/17 02:09:29;;;;;;;28.42;10.35;;;-7.80;99.90;;;;;;4189226;28;20029;-61
2021/01/17 02:12:02;;;;;;;28.38;12.07;;;-7.80;99.90;;;;;;4189157;28;20424;-62
2021/01/17 02:14:27;;;;;;;30.73;13.32;;;-7.80;99.90;;;;;;4144323;28;20056;-63
2021/01/17 02:16:30;;;;;;;33.42;12.00;;;-7.80;99.90;;;;;;4186689;28;20110;-63
2021/01/17 02:18:34;;;;;;;32.00;12.80;;;-7.80;99.90;;;;;;4189021;28;20625;-63
2021/01/17 02:20:37;;;;;;;30.98;12.20;;;-7.80;99.90;;;;;;4188776;28;20090;-62
2021/01/17 02:23:00;;;;;;;29.10;11.00;;;-7.80;99.90;;;;;;4189256;28;20447;-62
2021/01/17 02:25:05;;;;;;;35.50;13.00;;;-7.80;99.90;;;;;;4187364;28;20044;-62
2021/01/17 02:27:06;;;;;;;24.08;11.00;;;-7.80;99.90;;;;;;4188724;28;20029;-63
2021/01/17 02:29:08;;;;;;;25.42;11.20;;;-7.80;99.90;;;;;;4188890;28;20028;-63
2021/01/17 02:31:10;;;;;;;31.27;11.35;;;-7.80;99.90;;;;;;4188823;28;20459;-63
2021/01/17 02:33:21;;;;;;;29.08;12.18;;;-7.80;99.90;;;;;;4188589;28;20579;-62
2021/01/17 02:35:25;;;;;;;30.23;12.20;;;-7.80;99.90;;;;;;4188955;28;20021;-63
2021/01/17 02:37:45;;;;;;;27.63;11.15;;;-7.80;99.90;;;;;;4187254;28;20045;-62
2021/01/17 02:40:01;;;;;;;29.58;11.48;;;-7.80;99.90;;;;;;4188789;28;20032;-63
2021/01/17 02:42:04;;;;;;;30.48;11.77;;;-7.80;99.90;;;;;;4186894;28;20055;-63
2021/01/17 02:44:06;;;;;;;28.83;12.30;;;-7.80;99.90;;;;;;4189472;28;20032;-62
2021/01/17 02:46:08;;;;;;;28.65;11.35;;;-7.80;99.90;;;;;;4188575;28;20093;-63
2021/01/17 02:48:09;;;;;;;33.35;12.40;;;-7.80;99.90;;;;;;4188567;28;20028;-63
2021/01/17 02:50:12;;;;;;;30.58;11.10;;;-7.80;99.90;;;;;;4188954;28;20082;-64
2021/01/17 02:52:14;;;;;;;28.08;12.32;;;-7.80;99.90;;;;;;4188719;28;20032;-63
2021/01/17 02:54:26;;;;;;;28.02;12.13;;;-7.80;99.90;;;;;;4189187;28;20032;-63
2021/01/17 02:56:32;;;;;;;29.55;12.18;;;-7.80;99.90;;;;;;4188549;28;20028;-63
2021/01/17 02:58:34;;;;;;;31.60;12.02;;;-7.80;99.90;;;;;;4187887;28;20045;-63
2021/01/17 03:00:39;;;;;;;29.08;12.15;;;-7.80;99.90;;;;;;4188678;28;20032;-62
2021/01/17 03:02:44;;;;;;;35.40;13.18;;;-7.90;99.90;;;;;;4188070;28;20546;-62
2021/01/17 03:04:54;;;;;;;34.90;13.48;;;-7.90;99.90;;;;;;4188440;28;20109;-62
2021/01/17 03:06:58;;;;;;;30.33;12.88;;;-7.90;99.90;;;;;;4188921;28;20048;-63
2021/01/17 03:09:00;;;;;;;27.73;11.43;;;-7.90;99.90;;;;;;4188667;28;20036;-62
2021/01/17 03:11:02;;;;;;;30.73;12.27;;;-7.90;99.90;;;;;;4188544;28;20431;-63
2021/01/17 03:13:04;;;;;;;31.65;12.57;;;-7.90;99.90;;;;;;4188457;28;20037;-62
2021/01/17 03:15:06;;;;;;;30.92;11.40;;;-8.00;99.90;;;;;;4188602;28;20036;-62
2021/01/17 03:17:08;;;;;;;31.60;12.82;;;-8.00;99.90;;;;;;4187759;28;20098;-63
2021/01/17 03:19:09;;;;;;;27.92;11.20;;;-8.00;99.90;;;;;;4187957;28;20052;-63
2021/01/17 03:21:10;;;;;;;34.92;12.85;;;-8.10;99.90;;;;;;4188402;28;20024;-63
2021/01/17 03:23:12;;;;;;;30.55;11.38;;;-8.10;99.90;;;;;;4188632;28;20021;-62
2021/01/17 03:25:13;;;;;;;29.55;12.48;;;-8.10;99.90;;;;;;4188705;28;20082;-62
2021/01/17 03:27:14;;;;;;;30.42;12.60;;;-8.00;99.90;;;;;;4188450;28;20497;-63
2021/01/17 03:29:15;;;;;;;36.00;12.68;;;-8.10;99.90;;;;;;4188333;28;20426;-64
2021/01/17 03:31:17;;;;;;;33.30;12.30;;;-8.00;99.90;;;;;;4188204;28;20114;-63
2021/01/17 03:33:19;;;;;;;35.35;12.75;;;-8.00;99.90;;;;;;4188047;28;20056;-63
2021/01/17 03:35:20;;;;;;;31.75;12.68;;;-8.10;99.90;;;;;;4188103;28;20166;-62
2021/01/17 03:37:21;;;;;;;33.25;12.65;;;-8.10;99.90;;;;;;4187777;28;20033;-62
2021/01/17 03:39:22;;;;;;;30.33;12.18;;;-8.10;99.90;;;;;;4189839;28;20036;-62
2021/01/17 03:41:25;;;;;;;32.83;12.15;;;-8.10;99.90;;;;;;4191367;28;20040;-62
2021/01/17 03:43:26;;;;;;;30.80;11.90;;;-8.10;99.90;;;;;;4191354;28;20028;-62
2021/01/17 03:45:27;;;;;;;31.85;12.25;;;-8.10;99.90;;;;;;4191182;28;20484;-62
2021/01/17 03:47:29;;;;;;;33.40;13.07;;;-8.10;99.90;;;;;;4190826;28;20044;-61
2021/01/17 03:49:30;;;;;;;30.17;12.00;;;-8.10;99.90;;;;;;4191569;28;20049;-62
2021/01/17 03:51:31;;;;;;;35.08;13.25;;;-8.10;99.90;;;;;;4191177;28;20037;-62
2021/01/17 03:53:32;;;;;;;30.10;12.85;;;-8.10;99.90;;;;;;4191662;28;20446;-62
2021/01/17 03:55:33;;;;;;;32.47;13.13;;;-8.10;99.90;;;;;;4191118;28;20911;-62
2021/01/17 03:57:35;;;;;;;31.42;12.35;;;-8.10;99.90;;;;;;4191042;28;20462;-62
2021/01/17 03:59:36;;;;;;;31.58;11.88;;;-8.10;99.90;;;;;;4191077;28;20046;-61
2021/01/17 04:01:37;;;;;;;34.58;13.30;;;-8.10;99.90;;;;;;4190899;28;20060;-62
2021/01/17 04:03:39;;;;;;;34.90;13.43;;;-8.10;99.90;;;;;;4191100;28;20032;-63
2021/01/17 04:05:40;;;;;;;28.17;11.18;;;-8.00;99.90;;;;;;4191354;28;20381;-62
2021/01/17 04:07:41;;;;;;;31.67;13.27;;;-8.10;99.90;;;;;;4191287;28;20101;-62
2021/01/17 04:09:42;;;;;;;35.67;13.23;;;-8.10;99.90;;;;;;4190929;28;20098;-62
2021/01/17 04:11:44;;;;;;;33.13;11.23;;;-8.10;99.90;;;;;;4190364;28;20090;-62
2021/01/17 04:13:45;;;;;;;27.70;11.00;;;-8.10;99.90;;;;;;4190677;28;20040;-63
2021/01/17 04:15:47;;;;;;;30.80;12.85;;;-8.10;99.90;;;;;;4190937;28;20085;-63
2021/01/17 04:17:48;;;;;;;30.80;11.57;;;-8.10;99.90;;;;;;4190721;28;20878;-62
2021/01/17 04:19:49;;;;;;;30.35;11.68;;;-8.20;99.90;;;;;;4191248;28;20099;-62
2021/01/17 04:21:50;;;;;;;36.15;13.25;;;-8.10;99.90;;;;;;4190645;28;20024;-63
2021/01/17 04:23:51;;;;;;;30.20;11.90;;;-8.10;99.90;;;;;;4191387;28;20020;-62
2021/01/17 04:25:52;;;;;;;28.75;11.43;;;-8.10;99.90;;;;;;4191172;28;20025;-63
2021/01/17 04:27:54;;;;;;;29.70;12.02;;;-8.10;99.90;;;;;;4190978;28;20102;-62
2021/01/17 04:29:57;;;;;;;32.15;12.45;;;-8.10;99.90;;;;;;4189061;28;20028;-62
2021/01/17 04:31:58;;;;;;;32.03;12.50;;;-8.10;99.90;;;;;;4190434;28;20569;-62
2021/01/17 04:33:59;;;;;;;36.08;13.20;;;-8.10;99.90;;;;;;4190874;28;20093;-62
2021/01/17 04:36:01;;;;;;;36.28;13.45;;;-8.10;99.90;;;;;;4191106;28;20021;-62
2021/01/17 04:38:02;;;;;;;35.58;12.02;;;-8.10;99.90;;;;;;4191034;28;20068;-62
2021/01/17 04:40:08;;;;;;;25.85;12.20;;;-8.10;99.90;;;;;;4190780;28;20028;-61
2021/01/17 04:42:12;;;;;;;34.97;13.63;;;-8.20;99.90;;;;;;4190753;28;20028;-62
2021/01/17 04:44:20;;;;;;;32.70;12.38;;;-8.20;99.90;;;;;;4190388;28;20455;-62
2021/01/17 04:46:27;;;;;;;32.10;12.98;;;-8.10;99.90;;;;;;4188576;28;20102;-62
2021/01/17 04:48:29;;;;;;;29.92;13.30;;;-8.10;99.90;;;;;;4190441;28;20113;-61
2021/01/17 04:50:32;;;;;;;32.00;12.18;;;-8.10;99.90;;;;;;4190342;28;20082;-62
2021/01/17 04:52:56;;;;;;;37.05;13.98;;;-8.10;99.90;;;;;;4190742;28;20521;-63
2021/01/17 04:54:58;;;;;;;35.17;12.65;;;-8.10;99.90;;;;;;4191337;28;20382;-63
2021/01/17 04:57:21;;;;;;;30.85;12.30;;;-8.20;99.90;;;;;;4190588;28;20024;-62
2021/01/17 04:59:35;;;;;;;33.45;11.77;;;-8.10;99.90;;;;;;4176742;28;20098;-62
2021/01/17 05:01:49;;;;;;;34.17;12.60;;;-8.10;99.90;;;;;;4190120;28;20037;-62
2021/01/17 05:04:28;;;;;;;35.13;12.60;;;-8.10;99.90;;;;;;4190522;28;20029;-62
2021/01/17 05:06:30;;;;;;;34.83;13.45;;;-8.20;99.90;;;;;;4187630;28;20094;-62
2021/01/17 05:08:33;;;;;;;35.75;13.43;;;-8.20;99.90;;;;;;4189997;28;20032;-62
2021/01/17 05:10:39;;;;;;;39.08;15.27;;;-8.10;99.90;;;;;;4190370;28;20082;-63
2021/01/17 05:12:51;;;;;;;35.30;14.48;;;-8.10;99.90;;;;;;4190640;28;20028;-61
2021/01/17 05:14:55;;;;;;;37.72;13.80;;;-8.20;99.90;;;;;;4189961;28;20468;-62
2021/01/17 05:16:57;;;;;;;40.10;14.98;;;-8.20;99.90;;;;;;4189760;28;20052;-63
2021/01/17 05:18:59;;;;;;;38.80;15.43;;;-8.20;99.90;;;;;;4190248;28;20134;-63
2021/01/17 05:21:03;;;;;;;36.97;13.57;;;-8.20;99.90;;;;;;4189658;28;20070;-62
2021/01/17 05:23:09;;;;;;;34.00;14.60;;;-8.20;99.90;;;;;;4189700;28;20550;-62
2021/01/17 05:25:11;;;;;;;36.25;13.25;;;-8.30;99.90;;;;;;4190524;28;20036;-63
2021/01/17 05:27:12;;;;;;;37.00;14.23;;;-8.30;99.90;;;;;;4189226;28;20086;-62
2021/01/17 05:29:18;;;;;;;36.17;14.88;;;-8.30;99.90;;;;;;4190405;28;20078;-63
2021/01/17 05:31:23;;;;;;;36.15;14.13;;;-8.20;99.90;;;;;;4189370;28;20044;-62
2021/01/17 05:33:30;;;;;;;44.67;15.85;;;-8.30;99.90;;;;;;4190390;28;20472;-63
2021/01/17 05:35:31;;;;;;;37.15;15.43;;;-8.30;99.90;;;;;;4188948;28;20044;-62
2021/01/17 05:37:32;;;;;;;38.03;15.27;;;-8.20;99.90;;;;;;4189957;28;20103;-62
2021/01/17 05:39:52;;;;;;;39.30;15.82;;;-8.20;99.90;;;;;;4189262;28;20094;-62
2021/01/17 05:41:53;;;;;;;37.95;15.65;;;-8.20;99.90;;;;;;4187748;28;20114;-62
2021/01/17 05:43:54;;;;;;;37.42;15.77;;;-8.30;99.90;;;;;;4189420;28;20074;-62
2021/01/17 05:45:55;;;;;;;39.53;16.30;;;-8.30;99.90;;;;;;4189881;28;20029;-62
2021/01/17 05:47:59;;;;;;;43.10;17.23;;;-8.10;99.90;;;;;;4189708;28;20050;-62
2021/01/17 05:50:12;;;;;;;46.40;17.38;;;-8.00;99.90;;;;;;4187525;28;20029;-62
2021/01/17 05:52:17;;;;;;;44.22;16.40;;;-8.00;99.90;;;;;;4189779;28;20918;-61
2021/01/17 05:54:24;;;;;;;39.65;16.48;;;-7.90;99.90;;;;;;4190083;28;20911;-62
2021/01/17 05:56:32;;;;;;;38.00;15.93;;;-7.90;99.90;;;;;;4189507;28;20024;-62
2021/01/17 05:58:33;;;;;;;38.20;16.17;;;-7.90;99.90;;;;;;4189248;28;20032;-62
2021/01/17 06:00:35;;;;;;;39.13;16.80;;;-7.90;99.90;;;;;;4189438;28;20043;-62
2021/01/17 06:02:38;;;;;;;39.95;17.33;;;-8.00;99.90;;;;;;4188715;28;20028;-62
2021/01/17 06:04:41;;;;;;;40.50;17.23;;;-8.00;99.90;;;;;;4189255;28;20033;-61
2021/01/17 06:06:44;;;;;;;45.08;18.00;;;-8.10;99.90;;;;;;4189029;28;20036;-62
2021/01/17 06:08:45;;;;;;;37.40;15.93;;;-8.10;99.90;;;;;;4189737;28;20024;-63
2021/01/17 06:10:47;;;;;;;38.40;15.98;;;-8.10;99.90;;;;;;4188835;28;20028;-62
2021/01/17 06:12:51;;;;;;;42.00;16.73;;;-8.20;99.90;;;;;;4188808;28;20366;-62
2021/01/17 06:15:07;;;;;;;34.45;16.02;;;-8.20;99.90;;;;;;4188897;28;20425;-62
2021/01/17 06:17:10;;;;;;;39.58;16.42;;;-8.20;99.90;;;;;;4188898;28;20860;-62
2021/01/17 06:19:12;;;;;;;38.05;15.23;;;-8.20;99.90;;;;;;4187177;28;20098;-63
2021/01/17 06:21:16;;;;;;;35.83;14.18;;;-8.30;99.90;;;;;;4189347;28;20016;-61
2021/01/17 06:23:20;;;;;;;32.45;13.43;;;-8.30;99.90;;;;;;4188807;28;20085;-62
2021/01/17 06:25:27;;;;;;;35.72;13.40;;;-8.30;99.90;;;;;;4189622;28;20044;-62
2021/01/17 06:27:29;;;;;;;36.17;14.50;;;-8.40;99.90;;;;;;4186953;28;20571;-62
2021/01/17 06:29:43;;;;;;;29.88;12.73;;;-8.40;99.90;;;;;;4188905;28;20460;-62
2021/01/17 06:31:45;;;;;;;39.97;14.75;;;-8.40;99.90;;;;;;4188339;28;20048;-62
2021/01/17 06:33:49;;;;;;;30.50;13.43;;;-8.40;99.90;;;;;;4188704;28;20016;-63
2021/01/17 06:35:50;;;;;;;36.40;14.23;;;-8.40;99.90;;;;;;4188634;28;20036;-63
2021/01/17 06:37:51;;;;;;;40.55;15.02;;;-8.40;99.90;;;;;;4188820;28;20081;-63
2021/01/17 06:39:55;;;;;;;33.15;13.60;;;-8.40;99.90;;;;;;4188682;28;20105;-62
2021/01/17 06:41:59;;;;;;;37.13;14.60;;;-8.40;99.90;;;;;;4188994;28;20386;-62
2021/01/17 06:44:11;;;;;;;31.98;14.82;;;-8.40;99.90;;;;;;4188473;28;20025;-62
2021/01/17 06:46:13;;;;;;;36.15;15.18;;;-8.40;99.90;;;;;;4188454;28;20463;-62
2021/01/17 06:48:25;;;;;;;37.05;15.07;;;-8.40;99.90;;;;;;4188505;28;20059;-62
2021/01/17 06:50:27;;;;;;;38.75;14.38;;;-8.40;99.90;;;;;;4188158;28;20078;-63
2021/01/17 06:52:28;;;;;;;39.05;15.02;;;-8.30;99.90;;;;;;4185220;28;20377;-61
2021/01/17 06:54:46;;;;;;;42.90;16.15;;;-8.20;99.90;;;;;;4176275;28;20029;-61
2021/01/17 06:56:49;;;;;;;33.47;13.93;;;-8.00;99.90;;;;;;4171911;28;20055;-61
2021/01/17 06:58:52;;;;;;;38.05;14.77;;;-7.80;99.90;;;;;;4179994;28;20516;-62
2021/01/17 07:01:04;;;;;;;36.05;15.32;;;-7.60;99.90;;;;;;4188541;28;20101;-62
2021/01/17 07:03:16;;;;;;;45.85;15.35;;;-7.40;99.90;;;;;;4188562;28;20472;-62
2021/01/17 07:05:36;;;;;;;39.67;15.10;;;-7.20;99.90;;;;;;4188916;28;20036;-62
2021/01/17 07:07:47;;;;;;;38.97;16.08;;;-7.00;99.90;;;;;;4188869;28;20029;-62
2021/01/17 07:09:49;;;;;;;;;;;-6.80;99.90;;;;;;4189782;28;20029;-61
2021/01/17 07:12:03;;;;;;;43.13;18.50;;;-6.60;99.90;;;;;;4188765;28;19978;-62
2021/01/17 07:14:07;;;;;;;59.60;22.88;;;-6.30;99.90;;;;;;4191213;28;20086;-62
2021/01/17 07:16:18;;;;;;;99.45;37.00;;;-6.00;99.90;;;;;;4192046;28;20037;-63
2021/01/17 07:18:23;;;;;;;90.22;36.00;;;-5.80;99.90;;;;;;4191397;28;20038;-62
2021/01/17 07:20:28;;;;;;;88.70;38.05;;;-5.60;99.90;;;;;;4190373;28;20024;-62
2021/01/17 07:22:31;;;;;;;89.10;36.70;;;-5.60;99.90;;;;;;4191891;28;20024;-62
2021/01/17 07:24:33;;;;;;;66.60;26.83;;;-5.70;99.90;;;;;;4191381;28;20102;-63
2021/01/17 07:27:01;;;;;;;54.38;24.50;;;-5.50;99.90;;;;;;4191602;28;21320;-63
2021/01/17 07:29:03;;;;;;;60.90;25.35;;;-5.20;99.90;;;;;;4192051;28;20032;-63
2021/01/17 07:31:14;;;;;;;59.97;25.33;;;-5.10;99.90;;;;;;4190432;28;20484;-63
2021/01/17 07:33:35;;;;;;;61.07;25.97;;;-5.10;99.90;;;;;;4188621;28;20038;-63
2021/01/17 07:35:38;;;;;;;65.68;28.33;;;-4.90;99.90;;;;;;4191329;28;20404;-63
2021/01/17 07:37:41;;;;;;;74.70;31.95;;;-4.90;99.90;;;;;;4191297;28;20350;-63
2021/01/17 07:39:47;;;;;;;76.30;32.88;;;-4.90;99.90;;;;;;4191263;28;20492;-63
2021/01/17 07:41:50;;;;;;;68.45;30.02;;;-4.90;99.90;;;;;;4191152;28;20089;-63
2021/01/17 07:43:58;;;;;;;71.43;29.20;;;-4.80;99.90;;;;;;4190900;28;20082;-62
2021/01/17 07:46:03;;;;;;;69.15;28.02;;;-4.70;99.90;;;;;;4190465;28;20853;-62
2021/01/17 07:48:09;;;;;;;61.67;27.02;;;-4.60;99.90;;;;;;4189305;28;20465;-60
2021/01/17 07:50:12;;;;;;;58.08;26.42;;;-4.50;99.90;;;;;;4190853;28;20033;-61
2021/01/17 07:52:19;;;;;;;63.47;29.35;;;-4.30;99.90;;;;;;4183128;28;20843;-60
2021/01/17 07:54:26;;;;;;;62.08;27.30;;;-4.30;99.90;;;;;;4174559;28;20025;-59
2021/01/17 07:56:30;;;;;;;59.08;28.20;;;-4.10;99.90;;;;;;4183527;28;20562;-60
2021/01/17 07:58:33;;;;;;;59.08;26.08;;;-3.80;99.90;;;;;;4190842;28;20024;-59
2021/01/17 08:00:42;;;;;;;53.83;24.73;;;-3.60;99.90;;;;;;4190726;28;20086;-59
2021/01/17 08:02:49;;;;;;;61.17;26.98;;;-3.30;99.90;;;;;;4190250;28;20473;-60
2021/01/17 08:04:50;;;;;;;58.17;26.07;;;-3.20;99.90;;;;;;4189365;28;20106;-55
2021/01/17 08:06:57;;;;;;;65.40;28.47;;;-3.30;99.90;;;;;;4190593;28;20273;-59
2021/01/17 08:09:00;;;;;;;67.57;30.03;;;-3.50;99.90;;;;;;4191044;28;20795;-57
2021/01/17 08:11:02;;;;;;;58.78;26.98;;;-3.30;99.90;;;;;;4190748;28;20714;-55
2021/01/17 08:13:17;;;;;;;62.00;27.95;;;-3.20;99.90;;;;;;4190980;28;20036;-57
2021/01/17 08:15:22;;;;;;;58.07;26.87;;;-2.90;99.90;;;;;;4189768;28;20032;-57
2021/01/17 08:17:35;;;;;;;59.70;25.30;;;-2.60;99.90;;;;;;4189735;28;20688;-54
2021/01/17 08:19:40;;;;;;;65.70;26.93;;;-2.50;99.90;;;;;;4190487;28;20403;-59
2021/01/17 08:21:41;;;;;;;54.40;23.50;;;-2.70;99.90;;;;;;4190558;28;20303;-59
2021/01/17 08:24:14;;;;;;;49.47;22.30;;;-2.70;99.90;;;;;;4190813;28;20253;-60
2021/01/17 08:26:15;;;;;;;42.77;19.90;;;-2.40;99.90;;;;;;4189585;28;20322;-58
2021/01/17 08:28:36;;;;;;;40.53;20.07;;;-2.20;99.90;;;;;;4190268;28;20281;-58
2021/01/17 08:30:38;;;;;;;46.50;20.50;;;-1.80;99.90;;;;;;4190321;28;20371;-58
2021/01/17 08:32:53;;;;;;;44.67;21.07;;;-1.50;99.90;;;;;;4183636;28;20308;-56
2021/01/17 08:34:54;;;;;;;62.73;28.93;;;-1.50;99.90;;;;;;4173797;28;20383;-59
2021/01/17 08:36:56;;;;;;;51.20;24.00;;;-1.60;99.90;;;;;;4173479;28;20282;-52
2021/01/17 08:38:58;;;;;;;68.60;28.60;;;-1.70;99.90;;;;;;4173686;28;20301;-60
2021/01/17 08:40:59;;;;;;;51.27;23.57;;;-2.10;99.90;;;;;;4173684;28;20657;-59
2021/01/17 08:43:12;;;;;;;45.63;21.47;;;-2.00;99.90;;;;;;4174061;28;20270;-53
2021/01/17 08:45:22;;;;;;;46.53;21.50;;;-2.00;99.90;;;;;;4173480;28;20415;-60
2021/01/17 08:47:24;;;;;;;60.08;24.92;;;-2.00;99.90;;;;;;4173363;28;20282;-59
2021/01/17 08:49:37;;;;;;;47.93;22.47;;;-1.90;99.90;;;;;;4176474;28;20447;-56
2021/01/17 08:51:40;;;;;;;47.13;22.00;;;-1.60;99.90;;;;;;4175927;28;20263;-59
2021/01/17 08:53:42;;;;;;;47.33;21.37;;;-1.50;99.90;;;;;;4173444;28;20680;-54
2021/01/17 08:55:48;;;;;;;49.23;22.30;;;-1.40;99.90;;;;;;4174415;28;20266;-54
2021/01/17 08:57:52;;;;;;;52.80;22.40;;;-1.40;99.90;;;;;;4173617;28;20266;-58
2021/01/17 08:59:53;;;;;;;48.27;24.03;;;-1.90;99.90;;;;;;4173340;28;20919;-62
2021/01/17 09:02:00;;;;;;;56.83;26.13;;;-2.40;99.90;;;;;;4173245;28;20282;-60
2021/01/17 09:04:02;;;;;;;55.40;25.07;;;-2.80;99.90;;;;;;4173465;28;20728;-55
2021/01/17 09:06:05;;;;;;;51.50;24.10;;;-2.90;99.90;;;;;;4183762;28;20273;-64
2021/01/17 09:08:07;;;;;;;48.87;23.03;;;-2.80;99.90;;;;;;4189639;28;20323;-55
2021/01/17 09:10:11;;;;;;;46.00;22.53;;;-2.90;99.90;;;;;;4189396;28;20269;-47
2021/01/17 09:12:13;;;;;;;46.37;21.37;;;-3.20;99.90;;;;;;4189216;28;20262;-47
2021/01/17 09:14:19;;;;;;;49.20;21.77;;;-3.70;99.90;;;;;;4189927;28;20269;-50
2021/01/17 09:16:21;;;;;;;56.37;23.40;;;-4.00;99.90;;;;;;4188591;28;20265;-55
2021/01/17 09:18:26;;;;;;;57.57;24.40;;;-4.00;99.90;;;;;;4189421;28;20350;-55
2021/01/17 09:20:28;;;;;;;51.63;24.80;;;-3.90;99.90;;;;;;4189172;28;20289;-59
2021/01/17 09:22:29;;;;;;;59.30;26.00;;;-3.80;99.90;;;;;;4189473;28;20273;-61
2021/01/17 09:24:33;;;;;;;60.15;24.95;;;-4.10;99.90;;;;;;4189850;28;20664;-63
2021/01/17 09:26:34;;;;;;;63.17;28.15;;;-4.40;99.90;;;;;;4189851;28;20033;-64
2021/01/17 09:28:37;;;;;;;49.22;22.95;;;-4.70;99.90;;;;;;4188882;28;20799;-63
2021/01/17 09:30:39;;;;;;;57.13;24.05;;;-5.00;99.90;;;;;;4188806;28;20550;-61
2021/01/17 09:32:41;;;;;;;50.75;22.70;;;-5.20;99.90;;;;;;4189101;28;20411;-64
2021/01/17 09:34:49;;;;;;;38.53;17.02;;;-5.50;99.90;;;;;;4188975;28;20086;-62
2021/01/17 09:36:50;;;;;;;41.05;18.20;;;-5.50;99.90;;;;;;4175849;28;20045;-62
2021/01/17 09:38:52;;;;;;;41.22;17.85;;;-5.80;99.90;;;;;;4187877;28;20059;-61
2021/01/17 09:40:55;;;;;;;42.25;18.23;;;-6.00;99.90;;;;;;4185758;28;20090;-60
2021/01/17 09:43:00;;;;;;;43.83;18.65;;;-6.10;99.90;;;;;;4175828;28;20044;-61
2021/01/17 09:45:04;;;;;;;39.03;17.13;;;-6.20;99.90;;;;;;4185677;28;20090;-63
2021/01/17 09:47:20;;;;;;;38.80;16.90;;;-6.30;99.90;;;;;;4175017;28;20021;-61
2021/01/17 09:49:23;;;;;;;37.05;16.80;;;-6.40;99.90;;;;;;4183734;28;20029;-62
2021/01/17 09:51:28;;;;;;;36.35;16.65;;;-6.40;99.90;;;;;;4188286;28;20028;-61
2021/01/17 09:53:29;;;;;;;39.08;17.15;;;-6.30;99.90;;;;;;4180293;28;20090;-59
2021/01/17 09:55:31;;;;;;;40.63;17.88;;;-6.40;99.90;;;;;;4183498;28;20055;-60
2021/01/17 09:57:37;;;;;;;37.45;16.75;;;-6.30;99.90;;;;;;4189562;28;20029;-62
2021/01/17 09:59:39;;;;;;;41.30;17.92;;;-6.30;99.90;;;;;;4182369;28;20033;-63
2021/01/17 10:01:41;;;;;;;41.65;17.20;;;-6.20;99.90;;;;;;4183707;28;20477;-68
2021/01/17 10:03:48;;;;;;;44.88;18.65;;;-6.00;99.90;;;;;;4188901;28;20024;-62
2021/01/17 10:05:52;;;;;;;45.47;17.35;;;-5.90;99.90;;;;;;4172293;28;20094;-62
2021/01/17 10:08:13;;;;;;;42.92;17.27;;;-5.90;99.90;;;;;;4171931;28;20037;-61
2021/01/17 10:10:15;;;;;;;42.35;18.15;;;-6.00;99.90;;;;;;4172713;28;20040;-61
2021/01/17 10:12:26;;;;;;;45.95;19.27;;;-6.00;99.90;;;;;;4172118;28;20435;-62
2021/01/17 10:14:32;;;;;;;42.55;17.48;;;-6.00;99.90;;;;;;4172148;28;20041;-61
2021/01/17 10:16:33;;;;;;;43.97;19.75;;;-6.00;99.90;;;;;;4176604;28;20568;-60
2021/01/17 10:18:34;;;;;;;47.60;20.92;;;-6.00;99.90;;;;;;4184126;28;20058;-62
2021/01/17 10:20:38;;;;;;;42.50;18.77;;;-6.00;99.90;;;;;;4182771;28;20074;-62
2021/01/17 10:22:40;;;;;;;45.67;19.83;;;-6.00;99.90;;;;;;4186445;28;20020;-62
2021/01/17 10:24:42;;;;;;;46.10;19.45;;;-6.10;99.90;;;;;;4178953;28;20098;-62
2021/01/17 10:26:44;;;;;;;50.72;19.05;;;-6.10;99.90;;;;;;4186204;28;20455;-62
2021/01/17 10:28:45;;;;;;;47.28;20.35;;;-6.20;99.90;;;;;;4183295;28;20172;-63
2021/01/17 10:30:46;;;;;;;45.92;18.55;;;-6.20;99.90;;;;;;4188367;28;20037;-62
2021/01/17 10:32:49;;;;;;;47.63;19.52;;;-6.20;99.90;;;;;;4176242;28;20063;-61